createdAt,value
2022-10-19T00:01:13.576Z,12.88
2022-10-19T00:03:41.226Z,12.52
2022-10-19T00:06:12.651Z,10.18
2022-10-19T00:08:39.360Z,10.77
2022-10-19T00:11:06.113Z,11.40
2022-10-19T00:13:32.967Z,11.05
2022-10-19T00:15:59.652Z,11.20
2022-10-19T00:18:26.405Z,10.20
2022-10-19T00:20:53.114Z,10.20
2022-10-19T00:23:21.091Z,9.70
2022-10-19T00:25:57.703Z,10.35
2022-10-19T00:28:24.470Z,10.85
2022-10-19T00:30:51.638Z,10.40
2022-10-19T00:33:22.630Z,9.63
2022-10-19T00:35:52.077Z,9.88
2022-10-19T00:38:21.005Z,11.38
2022-10-19T00:40:48.435Z,11.57
2022-10-19T00:43:17.308Z,12.02
2022-10-19T00:45:44.045Z,11.93
2022-10-19T00:48:15.142Z,12.98
2022-10-19T00:50:44.285Z,12.95
2022-10-19T00:53:10.961Z,13.75
2022-10-19T00:55:40.929Z,14.23
2022-10-19T00:58:08.329Z,12.60
2022-10-19T01:00:36.344Z,12.80
2022-10-19T01:03:03.893Z,11.75
2022-10-19T01:05:32.654Z,10.30
2022-10-19T01:07:59.427Z,11.88
2022-10-19T01:10:48.013Z,10.77
2022-10-19T01:13:49.625Z,11.23
2022-10-19T01:16:29.319Z,12.00
2022-10-19T01:19:39.700Z,10.48
2022-10-19T01:22:12.205Z,10.98
2022-10-19T01:27:44.083Z,10.80
2022-10-19T01:30:19.958Z,12.00
2022-10-19T01:33:07.667Z,10.80
2022-10-19T01:35:40.379Z,11.40
2022-10-19T01:38:19.584Z,12.35
2022-10-19T01:41:20.216Z,11.63
2022-10-19T01:43:55.844Z,11.50
2022-10-19T01:46:41.210Z,10.55
2022-10-19T01:49:17.777Z,10.73
2022-10-19T01:51:53.966Z,11.88
2022-10-19T01:54:22.642Z,13.30
2022-10-19T01:56:52.247Z,14.55
2022-10-19T01:59:21.257Z,14.07
2022-10-19T02:01:50.194Z,13.15
2022-10-19T02:04:19.810Z,13.65
2022-10-19T02:06:46.998Z,12.85
2022-10-19T02:09:18.174Z,11.05
2022-10-19T02:11:54.670Z,11.88
2022-10-19T02:14:30.113Z,10.27
2022-10-19T02:17:06.102Z,11.82
2022-10-19T02:19:33.037Z,12.88
2022-10-19T02:21:59.902Z,13.32
2022-10-19T02:24:26.690Z,11.73
2022-10-19T02:26:54.420Z,10.68
2022-10-19T02:29:21.412Z,10.55
2022-10-19T02:31:48.472Z,9.50
2022-10-19T02:34:15.513Z,10.13
2022-10-19T02:36:42.212Z,9.70
2022-10-19T02:39:09.649Z,10.63
2022-10-19T02:41:44.523Z,10.82
2022-10-19T02:44:23.699Z,9.63
2022-10-19T02:46:54.928Z,10.45
2022-10-19T02:49:22.074Z,12.88
2022-10-19T02:52:04.134Z,14.35
2022-10-19T02:54:31.450Z,11.63
2022-10-19T02:56:58.205Z,12.35
2022-10-19T02:59:25.390Z,13.73
2022-10-19T03:01:52.604Z,12.85
2022-10-19T03:04:19.378Z,12.80
2022-10-19T03:06:46.028Z,10.57
2022-10-19T03:09:12.771Z,13.35
2022-10-19T03:11:39.721Z,13.60
2022-10-19T03:14:06.330Z,15.23
2022-10-19T03:16:33.010Z,15.52
2022-10-19T03:18:59.839Z,16.30
2022-10-19T03:21:26.496Z,20.58
2022-10-19T03:23:53.074Z,17.02
2022-10-19T03:26:20.029Z,17.02
2022-10-19T03:28:46.673Z,16.63
2022-10-19T03:31:13.329Z,15.77
2022-10-19T03:33:40.011Z,17.65
2022-10-19T03:36:16.669Z,16.35
2022-10-19T03:38:43.764Z,16.00
2022-10-19T03:41:10.452Z,18.25
2022-10-19T03:43:37.342Z,17.55
2022-10-19T03:46:04.008Z,16.20
2022-10-19T03:48:30.695Z,17.65
2022-10-19T03:51:01.339Z,17.55
2022-10-19T03:53:28.390Z,16.67
2022-10-19T03:56:01.206Z,17.88
2022-10-19T03:58:27.790Z,16.92
2022-10-19T04:00:54.433Z,17.02
2022-10-19T04:03:21.071Z,17.30
2022-10-19T04:05:47.864Z,18.70
2022-10-19T04:08:14.564Z,20.35
2022-10-19T04:10:41.196Z,18.77
2022-10-19T04:13:08.255Z,19.23
2022-10-19T04:15:35.447Z,18.98
2022-10-19T04:18:02.366Z,14.65
2022-10-19T04:20:29.151Z,15.15
2022-10-19T04:22:55.858Z,16.48
2022-10-19T04:25:22.471Z,15.70
2022-10-19T04:27:49.563Z,16.65
2022-10-19T04:30:16.338Z,16.55
2022-10-19T04:32:43.008Z,14.20
2022-10-19T04:35:09.773Z,14.50
2022-10-19T04:37:36.673Z,14.25
2022-10-19T04:40:05.809Z,14.43
2022-10-19T04:42:32.416Z,18.73
2022-10-19T04:45:00.076Z,20.08
2022-10-19T04:47:26.671Z,15.02
2022-10-19T04:49:53.658Z,17.42
2022-10-19T04:52:20.376Z,14.10
2022-10-19T04:54:47.652Z,14.95
2022-10-19T04:57:14.902Z,15.27
2022-10-19T04:59:42.371Z,14.25
2022-10-19T05:02:08.933Z,13.18
2022-10-19T05:04:35.565Z,13.65
2022-10-19T05:07:02.190Z,13.75
2022-10-19T05:09:28.959Z,12.27
2022-10-19T05:11:55.621Z,13.43
2022-10-19T05:14:22.438Z,13.95
2022-10-19T05:16:49.762Z,15.27
2022-10-19T05:19:16.703Z,15.70
2022-10-19T05:21:43.319Z,17.75
2022-10-19T05:24:12.306Z,12.57
2022-10-19T05:26:40.361Z,15.57
2022-10-19T05:29:11.523Z,17.75
2022-10-19T05:31:38.453Z,17.05
2022-10-19T05:34:05.235Z,19.48
2022-10-19T05:36:35.173Z,19.45
2022-10-19T05:39:12.636Z,19.52
2022-10-19T05:41:39.522Z,19.08
2022-10-19T05:44:06.544Z,17.50
2022-10-19T05:46:33.942Z,15.02
2022-10-19T05:49:01.111Z,15.23
2022-10-19T05:51:28.712Z,15.60
2022-10-19T05:53:56.382Z,15.10
2022-10-19T05:56:28.587Z,14.77
2022-10-19T05:58:56.575Z,13.93
2022-10-19T06:01:23.812Z,17.05
2022-10-19T06:03:55.602Z,14.60
2022-10-19T06:06:23.143Z,14.18
2022-10-19T06:08:50.496Z,13.50
2022-10-19T06:11:22.635Z,13.82
2022-10-19T06:13:51.278Z,14.13
2022-10-19T06:16:20.240Z,13.80
2022-10-19T06:18:47.620Z,13.48
2022-10-19T06:21:16.623Z,12.50
2022-10-19T06:23:43.733Z,13.52
2022-10-19T06:26:14.252Z,12.88
2022-10-19T06:28:42.741Z,14.57
2022-10-19T06:31:10.336Z,13.48
2022-10-19T06:33:39.135Z,14.30
2022-10-19T06:36:14.326Z,14.82
2022-10-19T06:38:42.205Z,14.25
2022-10-19T06:41:09.134Z,13.18
2022-10-19T06:43:36.205Z,13.18
2022-10-19T06:46:23.451Z,13.75
2022-10-19T06:48:55.495Z,13.52
2022-10-19T06:51:24.536Z,13.10
2022-10-19T06:53:54.157Z,11.40
2022-10-19T06:56:24.756Z,12.57
2022-10-19T06:58:51.556Z,12.45
2022-10-19T07:01:18.469Z,12.00
2022-10-19T07:03:45.303Z,10.48
2022-10-19T07:06:14.007Z,11.55
2022-10-19T07:08:42.288Z,10.85
2022-10-19T07:11:11.683Z,11.45
2022-10-19T07:13:38.911Z,10.63
2022-10-19T07:16:08.350Z,10.98
2022-10-19T07:18:36.507Z,9.65
2022-10-19T07:21:05.918Z,9.02
2022-10-19T07:23:34.273Z,9.07
2022-10-19T07:26:18.292Z,9.85
2022-10-19T07:28:47.359Z,8.48
2022-10-19T07:31:17.945Z,8.18
2022-10-19T07:33:45.006Z,8.10
2022-10-19T07:36:13.670Z,7.72
2022-10-19T07:38:41.162Z,8.25
2022-10-19T07:41:13.425Z,8.25
2022-10-19T07:43:41.291Z,8.43
2022-10-19T07:46:11.750Z,8.52
2022-10-19T07:48:38.563Z,8.52
2022-10-19T07:51:07.327Z,9.05
2022-10-19T07:53:35.113Z,8.82
2022-10-19T07:56:08.194Z,7.78
2022-10-19T07:58:35.445Z,7.93
2022-10-19T08:01:10.002Z,9.15
2022-10-19T08:06:25.552Z,9.25
2022-10-19T08:08:53.493Z,9.07
2022-10-19T08:11:23.203Z,9.30
2022-10-19T08:13:50.579Z,8.50
2022-10-19T08:16:23.532Z,9.50
2022-10-19T08:18:50.902Z,9.35
2022-10-19T08:21:17.855Z,9.07
2022-10-19T08:23:44.569Z,7.40
2022-10-19T08:26:11.388Z,7.20
2022-10-19T08:28:38.165Z,8.10
2022-10-19T08:31:19.891Z,6.78
2022-10-19T08:33:46.936Z,6.25
2022-10-19T08:36:14.173Z,7.70
2022-10-19T08:38:41.624Z,7.45
2022-10-19T08:41:29.328Z,7.10
2022-10-19T08:44:24.215Z,6.57
2022-10-19T08:47:14.109Z,6.68
2022-10-19T08:49:41.842Z,5.95
2022-10-19T08:52:19.641Z,6.55
2022-10-19T08:54:53.607Z,6.10
2022-10-19T08:57:20.241Z,5.18
2022-10-19T09:00:09.854Z,5.43
2022-10-19T09:02:45.679Z,5.00
2022-10-19T09:05:27.333Z,5.65
2022-10-19T09:07:54.765Z,5.38
2022-10-19T09:10:26.703Z,5.65
2022-10-19T09:12:58.734Z,5.85
2022-10-19T09:15:46.898Z,5.43
2022-10-19T09:18:23.925Z,5.03
2022-10-19T09:20:56.805Z,5.68
2022-10-19T09:23:30.112Z,5.70
2022-10-19T09:25:58.066Z,5.18
2022-10-19T09:28:46.288Z,4.80
2022-10-19T09:31:22.231Z,4.03
2022-10-19T09:33:55.722Z,4.15
2022-10-19T09:36:39.204Z,4.22
2022-10-19T09:39:14.085Z,4.15
2022-10-19T09:41:51.548Z,4.40
2022-10-19T09:44:18.492Z,4.40
2022-10-19T09:47:15.350Z,4.05
2022-10-19T09:49:44.295Z,3.88
2022-10-19T09:52:31.164Z,4.72
2022-10-19T09:55:06.200Z,4.30
2022-10-19T09:57:33.737Z,4.63
2022-10-19T10:00:00.611Z,4.95
2022-10-19T10:02:34.123Z,4.88
2022-10-19T10:05:14.140Z,4.57
2022-10-19T10:07:41.144Z,4.75
2022-10-19T10:10:21.519Z,4.60
2022-10-19T10:12:49.046Z,4.63
2022-10-19T10:15:19.335Z,4.63
2022-10-19T10:17:48.748Z,4.60
2022-10-19T10:20:30.532Z,3.85
2022-10-19T10:23:04.309Z,3.80
2022-10-19T10:25:37.558Z,3.90
2022-10-19T10:28:26.429Z,3.90
2022-10-19T10:30:59.725Z,3.70
2022-10-19T10:33:43.793Z,4.75
2022-10-19T10:36:12.589Z,3.38
2022-10-19T10:38:47.560Z,3.30
2022-10-19T10:41:28.941Z,2.97
2022-10-19T10:43:58.593Z,3.15
2022-10-19T10:46:34.656Z,3.30
2022-10-19T10:49:07.244Z,3.22
2022-10-19T10:51:52.991Z,3.28
2022-10-19T10:54:31.393Z,2.70
2022-10-19T10:57:13.916Z,2.42
2022-10-19T10:59:56.148Z,1.98
2022-10-19T11:03:13.415Z,2.80
2022-10-19T11:05:47.443Z,3.17
2022-10-19T11:08:22.703Z,2.70
2022-10-19T11:11:01.870Z,3.10
2022-10-19T11:13:42.606Z,2.00
2022-10-19T11:16:16.272Z,2.20
2022-10-19T11:18:57.694Z,1.85
2022-10-19T11:21:27.353Z,2.20
2022-10-19T11:23:57.025Z,2.20
2022-10-19T11:26:37.107Z,2.03
2022-10-19T11:29:39.741Z,2.20
2022-10-19T11:32:17.491Z,2.70
2022-10-19T11:35:19.495Z,3.28
2022-10-19T11:38:19.792Z,3.03
2022-10-19T11:41:13.109Z,3.08
2022-10-19T11:44:13.527Z,4.15
2022-10-19T11:46:52.102Z,4.25
2022-10-19T11:49:37.687Z,3.47
2022-10-19T11:52:20.420Z,3.15
2022-10-19T11:55:24.653Z,3.03
2022-10-19T11:58:05.725Z,3.40
2022-10-19T12:00:44.425Z,3.25
2022-10-19T12:03:20.565Z,2.75
2022-10-19T12:06:14.136Z,2.83
2022-10-19T12:08:55.290Z,3.45
2022-10-19T12:11:32.153Z,2.65
2022-10-19T12:14:09.606Z,2.50
2022-10-19T12:16:47.557Z,2.30
2022-10-19T12:19:29.099Z,2.33
2022-10-19T12:22:00.622Z,2.42
2022-10-19T12:24:29.233Z,2.80
2022-10-19T12:26:57.125Z,2.80
2022-10-19T12:29:31.674Z,2.70
2022-10-19T12:32:01.362Z,2.50
2022-10-19T12:34:43.623Z,2.83
2022-10-19T12:37:10.239Z,2.92
2022-10-19T12:39:46.790Z,2.70
2022-10-19T12:42:19.191Z,2.10
2022-10-19T12:47:25.161Z,2.28
2022-10-19T12:49:55.722Z,2.33
2022-10-19T12:52:39.744Z,1.95
2022-10-19T12:55:15.670Z,3.25
2022-10-19T12:57:58.080Z,3.35
2022-10-19T13:00:28.655Z,2.83
2022-10-19T13:03:16.087Z,2.80
2022-10-19T13:05:59.052Z,2.40
2022-10-19T13:08:33.109Z,2.58
2022-10-19T13:11:10.054Z,2.78
2022-10-19T13:13:57.097Z,2.03
2022-10-19T13:16:29.853Z,2.35
2022-10-19T13:18:59.777Z,1.80
2022-10-19T13:21:48.378Z,2.20
2022-10-19T13:24:23.958Z,2.85
2022-10-19T13:27:02.766Z,3.20
2022-10-19T13:29:39.166Z,2.75
2022-10-19T13:32:32.778Z,2.90
2022-10-19T13:35:21.990Z,2.92
2022-10-19T13:38:11.752Z,3.25
2022-10-19T13:41:04.654Z,3.00
2022-10-19T13:43:34.036Z,2.65
2022-10-19T13:46:08.114Z,3.00
2022-10-19T13:49:02.873Z,2.30
2022-10-19T13:51:48.164Z,3.28
2022-10-19T13:54:39.151Z,2.42
2022-10-19T13:57:18.451Z,1.73
2022-10-19T13:59:49.932Z,2.60
2022-10-19T14:02:34.884Z,2.13
2022-10-19T14:05:23.619Z,2.10
2022-10-19T14:08:00.952Z,1.67
2022-10-19T14:10:32.838Z,2.20
2022-10-19T14:13:11.044Z,2.38
2022-10-19T14:15:37.747Z,2.28
2022-10-19T14:18:06.007Z,2.00
2022-10-19T14:20:34.383Z,2.15
2022-10-19T14:23:25.311Z,2.53
2022-10-19T14:25:59.800Z,2.20
2022-10-19T14:28:28.063Z,2.50
2022-10-19T14:31:05.018Z,2.60
2022-10-19T14:33:37.941Z,2.92
2022-10-19T14:36:07.785Z,2.53
2022-10-19T14:38:38.384Z,2.42
2022-10-19T14:41:17.211Z,2.85
2022-10-19T14:43:44.031Z,2.60
2022-10-19T14:46:12.165Z,2.50
2022-10-19T14:48:47.510Z,2.30
2022-10-19T14:51:17.136Z,2.53
2022-10-19T14:53:55.540Z,2.40
2022-10-19T14:56:29.520Z,2.25
2022-10-19T14:59:02.403Z,1.80
2022-10-19T15:01:29.144Z,1.67
2022-10-19T15:03:56.471Z,2.00
2022-10-19T15:06:30.190Z,1.70
2022-10-19T15:09:01.988Z,1.50
2022-10-19T15:11:38.010Z,1.13
2022-10-19T15:14:25.969Z,1.40
2022-10-19T15:16:55.341Z,1.30
2022-10-19T15:19:34.253Z,1.20
2022-10-19T15:22:14.640Z,1.90
2022-10-19T15:25:06.264Z,1.77
2022-10-19T15:27:35.873Z,1.50
2022-10-19T15:30:17.895Z,1.15
2022-10-19T15:32:51.183Z,1.70
2022-10-19T15:35:29.662Z,4.47
2022-10-19T15:38:10.866Z,2.90
2022-10-19T15:40:40.532Z,1.27
2022-10-19T15:43:35.290Z,2.42
2022-10-19T15:46:05.052Z,1.00
2022-10-19T15:48:41.409Z,1.83
2022-10-19T15:51:23.549Z,5.63
2022-10-19T15:53:59.620Z,2.83
2022-10-19T15:56:29.860Z,1.50
2022-10-19T15:58:59.068Z,1.58
2022-10-19T16:01:28.185Z,1.20
2022-10-19T16:03:56.496Z,1.35
2022-10-19T16:06:26.320Z,1.67
2022-10-19T16:08:54.192Z,1.55
2022-10-19T16:11:25.499Z,2.30
2022-10-19T16:13:52.293Z,2.70
2022-10-19T16:16:28.210Z,2.40
2022-10-19T16:18:55.683Z,1.80
2022-10-19T16:21:27.116Z,1.90
2022-10-19T16:23:53.876Z,2.90
2022-10-19T16:26:21.524Z,2.88
2022-10-19T16:28:49.029Z,2.00
2022-10-19T16:31:17.999Z,2.30
2022-10-19T16:33:47.686Z,2.15
2022-10-19T16:36:20.461Z,1.92
2022-10-19T16:38:50.364Z,1.80
2022-10-19T16:41:25.088Z,2.08
2022-10-19T16:43:58.941Z,1.90
2022-10-19T16:46:26.308Z,1.88
2022-10-19T16:48:53.432Z,1.65
2022-10-19T16:51:33.297Z,1.60
2022-10-19T16:54:00.393Z,1.70
2022-10-19T16:56:29.396Z,1.40
2022-10-19T16:58:59.740Z,2.00
2022-10-19T17:01:27.057Z,2.15
2022-10-19T17:03:55.190Z,1.48
2022-10-19T17:06:23.115Z,1.90
2022-10-19T17:11:39.582Z,2.05
2022-10-19T17:14:11.149Z,2.80
2022-10-19T17:16:38.774Z,1.70
2022-10-19T17:19:07.329Z,1.85
2022-10-19T17:21:38.257Z,1.73
2022-10-19T17:24:07.702Z,1.85
2022-10-19T17:26:40.069Z,1.65
2022-10-19T17:29:07.081Z,2.58
2022-10-19T17:31:35.018Z,1.70
2022-10-19T17:34:02.474Z,2.05
2022-10-19T17:36:36.133Z,2.75
2022-10-19T17:39:06.909Z,2.50
2022-10-19T17:41:49.517Z,2.78
2022-10-19T17:44:18.684Z,2.33
2022-10-19T17:46:46.145Z,2.60
2022-10-19T17:49:13.425Z,2.42
2022-10-19T17:51:40.713Z,3.03
2022-10-19T17:54:13.309Z,3.72
2022-10-19T17:59:09.359Z,3.67
2022-10-19T18:01:59.586Z,3.25
2022-10-19T18:04:26.399Z,2.70
2022-10-19T18:06:53.012Z,2.35
2022-10-19T18:09:19.665Z,2.70
2022-10-19T18:11:46.404Z,2.55
2022-10-19T18:14:13.167Z,3.22
2022-10-19T18:16:44.796Z,2.85
2022-10-19T18:19:13.195Z,2.60
2022-10-19T18:21:42.281Z,2.25
2022-10-19T18:24:15.126Z,2.40
2022-10-19T18:26:43.072Z,2.38
2022-10-19T18:29:17.117Z,2.78
2022-10-19T18:31:44.018Z,2.95
2022-10-19T18:34:14.613Z,2.40
2022-10-19T18:36:41.456Z,2.25
2022-10-19T18:39:08.258Z,2.10
2022-10-19T18:41:34.933Z,2.40
2022-10-19T18:44:05.240Z,1.90
2022-10-19T18:46:34.770Z,1.80
2022-10-19T18:49:02.669Z,1.77
2022-10-19T18:51:29.875Z,1.80
2022-10-19T18:53:56.667Z,1.88
2022-10-19T18:56:24.140Z,2.15
2022-10-19T18:58:51.483Z,2.55
2022-10-19T19:01:24.298Z,2.15
2022-10-19T19:03:57.106Z,2.20
2022-10-19T19:06:32.160Z,2.33
2022-10-19T19:09:01.358Z,2.08
2022-10-19T19:11:36.086Z,2.42
2022-10-19T19:14:12.557Z,2.42
2022-10-19T19:16:40.208Z,2.58
2022-10-19T19:19:07.950Z,3.28
2022-10-19T19:21:36.736Z,4.40
2022-10-19T19:24:18.400Z,4.82
2022-10-19T19:26:51.376Z,4.55
2022-10-19T19:29:25.700Z,4.95
2022-10-19T19:31:55.668Z,5.97
2022-10-19T19:34:26.489Z,5.13
2022-10-19T19:36:54.175Z,4.95
2022-10-19T19:41:49.982Z,5.45
2022-10-19T19:44:19.100Z,4.65
2022-10-19T19:46:46.045Z,5.72
2022-10-19T19:49:12.721Z,5.15
2022-10-19T19:54:05.851Z,6.93
2022-10-19T19:59:03.774Z,6.93
2022-10-19T20:01:31.290Z,8.02
2022-10-19T20:03:59.395Z,8.40
2022-10-19T20:06:26.890Z,8.52
2022-10-19T20:08:55.292Z,9.23
2022-10-19T20:11:23.694Z,8.93
2022-10-19T20:13:51.296Z,9.48
2022-10-19T20:16:22.810Z,8.65
2022-10-19T20:18:55.993Z,10.43
2022-10-19T20:21:25.337Z,11.40
2022-10-19T20:23:51.939Z,11.95
2022-10-19T20:28:47.016Z,9.85
2022-10-19T20:31:13.834Z,10.98
2022-10-19T20:33:41.763Z,11.00
2022-10-19T20:36:14.372Z,11.05
2022-10-19T20:38:45.966Z,9.77
2022-10-19T20:41:12.671Z,9.52
2022-10-19T20:43:39.418Z,9.80
2022-10-19T20:46:08.051Z,8.30
2022-10-19T20:48:34.762Z,9.10
2022-10-19T20:53:36.906Z,10.07
2022-10-19T20:56:05.625Z,11.10
2022-10-19T20:58:33.357Z,10.40
2022-10-19T21:01:08.796Z,10.75
2022-10-19T21:03:36.173Z,10.75
2022-10-19T21:06:08.105Z,12.43
2022-10-19T21:08:36.068Z,13.80
2022-10-19T21:11:15.789Z,14.32
2022-10-19T21:13:43.690Z,13.65
2022-10-19T21:16:18.451Z,14.85
2022-10-19T21:18:46.891Z,13.02
2022-10-19T21:21:16.333Z,13.95
2022-10-19T21:23:45.030Z,12.65
2022-10-19T21:26:12.318Z,12.63
2022-10-19T21:28:40.117Z,10.00
2022-10-19T21:31:09.445Z,10.40
2022-10-19T21:33:36.637Z,11.65
2022-10-19T21:36:05.796Z,11.52
2022-10-19T21:38:32.787Z,11.50
2022-10-19T21:41:00.985Z,10.90
2022-10-19T21:43:28.781Z,11.98
2022-10-19T21:45:55.925Z,12.88
2022-10-19T21:48:23.300Z,12.70
2022-10-19T21:50:50.690Z,11.77
2022-10-19T21:53:22.614Z,12.07
2022-10-19T21:55:50.715Z,12.90
2022-10-19T21:58:21.759Z,10.45
2022-10-19T22:00:48.458Z,11.88
2022-10-19T22:05:53.346Z,11.73
2022-10-19T22:08:20.152Z,12.43
2022-10-19T22:10:46.756Z,11.27
2022-10-19T22:15:41.300Z,11.65
2022-10-19T22:18:08.813Z,11.27
2022-10-19T22:20:37.093Z,11.43
2022-10-19T22:23:04.988Z,10.55
2022-10-19T22:25:32.445Z,10.38
2022-10-19T22:27:59.057Z,9.93
2022-10-19T22:32:53.258Z,10.50
2022-10-19T22:35:20.307Z,11.18
2022-10-19T22:37:46.840Z,11.82
2022-10-19T22:40:13.668Z,11.00
2022-10-19T22:43:37.059Z,10.05
2022-10-19T22:47:19.047Z,9.48
2022-10-19T22:51:01.164Z,6.40
2022-10-19T22:53:46.141Z,6.20
2022-10-19T22:56:13.435Z,6.30
2022-10-19T22:58:40.168Z,6.00
2022-10-19T23:03:39.400Z,4.53
2022-10-19T23:06:11.030Z,4.80
2022-10-19T23:08:38.191Z,5.00
2022-10-19T23:11:05.194Z,4.80
2022-10-19T23:13:32.125Z,4.63
2022-10-19T23:15:58.757Z,4.55
2022-10-19T23:18:25.366Z,4.43
2022-10-19T23:21:03.639Z,4.65
2022-10-19T23:23:31.638Z,4.40
2022-10-19T23:26:10.463Z,4.43
2022-10-19T23:31:11.593Z,4.25
2022-10-19T23:33:38.571Z,4.70
2022-10-19T23:36:17.621Z,4.90
2022-10-19T23:38:47.168Z,4.85
2022-10-19T23:41:15.214Z,4.95
2022-10-19T23:43:42.056Z,5.28
2022-10-19T23:46:08.969Z,5.28
2022-10-19T23:48:36.004Z,4.28
2022-10-19T23:51:08.266Z,4.88
2022-10-19T23:53:40.026Z,5.30
2022-10-19T23:56:11.995Z,5.40
2022-10-19T23:58:38.689Z,4.50
